createdAt,value
2022-08-05T00:00:02.448Z,1009.721
2022-08-05T00:07:01.748Z,1009.721
2022-08-05T00:14:02.220Z,1010.079
2022-08-05T00:21:02.044Z,1009.89
2022-08-05T00:28:02.270Z,1009.89
2022-08-05T00:35:06.539Z,1010.043
2022-08-05T00:42:01.979Z,1010.043
2022-08-05T00:49:01.571Z,1009.659
2022-08-05T00:56:02.330Z,1009.659
2022-08-05T01:00:02.033Z,1010.128
2022-08-05T01:07:01.907Z,1010.128
2022-08-05T01:14:01.716Z,1010.08
2022-08-05T01:21:01.555Z,1010.08
2022-08-05T01:28:01.920Z,1010.198
2022-08-05T01:35:01.598Z,1010.198
2022-08-05T01:42:01.663Z,1010.252
2022-08-05T01:49:02.283Z,1010.252
2022-08-05T01:56:04.470Z,1010.398
2022-08-05T02:00:02.263Z,1010.398
2022-08-05T02:07:03.505Z,1011.193
2022-08-05T02:14:02.087Z,1011.193
2022-08-05T02:21:02.153Z,1011.334
2022-08-05T02:28:01.599Z,1011.334
2022-08-05T02:35:02.153Z,1011.19
2022-08-05T02:42:01.653Z,1011.484
2022-08-05T02:49:02.359Z,1011.484
2022-08-05T02:56:02.266Z,1011.652
2022-08-05T03:00:02.100Z,1011.652
2022-08-05T03:07:02.179Z,1011.652
2022-08-05T03:14:03.306Z,1010.041
2022-08-05T03:21:02.360Z,1009.838
2022-08-05T03:28:01.686Z,1009.838
2022-08-05T03:35:01.942Z,1010.285
2022-08-05T03:42:02.159Z,1010.285
2022-08-05T03:49:02.291Z,1011.09
2022-08-05T03:56:12.053Z,1011.09
2022-08-05T04:00:01.862Z,1011.142
2022-08-05T04:07:02.000Z,1011.142
2022-08-05T04:14:01.400Z,1010.713
2022-08-05T04:21:01.780Z,1010.713
2022-08-05T04:28:05.726Z,1010.335
2022-08-05T04:35:02.013Z,1010.335
2022-08-05T04:42:02.215Z,1010.86
2022-08-05T04:49:02.290Z,1010.86
2022-08-05T04:56:33.627Z,1010.803
2022-08-05T05:00:01.719Z,1010.803
2022-08-05T05:07:02.194Z,1010.803
2022-08-05T05:14:02.048Z,1010.803
2022-08-05T05:21:01.902Z,1010.704
2022-08-05T05:28:02.244Z,1010.704
2022-08-05T05:35:02.002Z,1010.908
2022-08-05T05:42:01.400Z,1011.045
2022-08-05T05:49:06.411Z,1011.045
2022-08-05T05:56:03.263Z,1011.138
2022-08-05T06:00:01.993Z,1011.138
2022-08-05T06:07:01.715Z,1011.138
2022-08-05T06:14:01.641Z,1011.213
2022-08-05T06:21:01.983Z,1011.098
2022-08-05T06:28:10.719Z,1011.098
2022-08-05T06:35:06.117Z,1011.622
2022-08-05T06:42:01.485Z,1011.622
2022-08-05T06:49:01.811Z,1011.705
2022-08-05T06:56:01.925Z,1011.705
2022-08-05T07:00:02.627Z,1011.721
2022-08-05T07:07:01.701Z,1011.721
2022-08-05T07:14:02.347Z,1011.812
2022-08-05T07:21:05.578Z,1011.812
2022-08-05T07:28:05.876Z,1012.046
2022-08-05T07:36:01.939Z,1012.046
2022-08-05T07:42:13.277Z,1012.117
2022-08-05T07:49:05.944Z,1012.117
2022-08-05T07:56:05.347Z,1012.48
2022-08-05T08:00:02.428Z,1012.48
2022-08-05T08:07:01.821Z,1012.739
2022-08-05T08:14:02.125Z,1012.739
2022-08-05T08:21:04.032Z,1012.953
2022-08-05T08:28:01.750Z,1012.953
2022-08-05T08:35:02.774Z,1013.105
2022-08-05T08:42:02.155Z,1013.3
2022-08-05T08:49:17.359Z,1013.3
2022-08-05T08:56:04.801Z,1013.427
2022-08-05T09:00:02.135Z,1013.427
2022-08-05T09:07:02.273Z,1013.427
2022-08-05T09:14:53.859Z,1013.558
2022-08-05T09:21:01.370Z,1013.732
2022-08-05T09:28:05.540Z,1013.732
2022-08-05T09:35:02.530Z,1013.869
2022-08-05T09:42:01.569Z,1013.869
2022-08-05T09:49:07.990Z,1013.923
2022-08-05T09:56:03.620Z,1013.923
2022-08-05T10:00:07.318Z,1014.235
2022-08-05T10:07:20.187Z,1014.235
2022-08-05T10:14:01.638Z,1014.179
2022-08-05T10:21:08.482Z,1014.179
2022-08-05T10:28:13.681Z,1014.57
2022-08-05T10:35:01.799Z,1014.57
2022-08-05T10:42:01.633Z,1014.513
2022-08-05T10:49:09.800Z,1014.513
2022-08-05T10:56:04.983Z,1014.634
2022-08-05T11:00:13.365Z,1014.634
2022-08-05T11:07:01.717Z,1014.888
2022-08-05T11:14:02.311Z,1014.888
2022-08-05T11:21:01.486Z,1014.858
2022-08-05T11:28:02.275Z,1014.858
2022-08-05T11:35:02.306Z,1014.824
2022-08-05T11:42:04.562Z,1014.963
2022-08-05T11:49:02.045Z,1014.963
2022-08-05T11:56:01.986Z,1015.004
2022-08-05T12:00:02.073Z,1015.004
2022-08-05T12:07:02.046Z,1015.004
2022-08-05T12:14:04.441Z,1014.879
2022-08-05T12:21:02.182Z,1014.997
2022-08-05T12:28:02.371Z,1014.997
2022-08-05T12:35:04.105Z,1015.124
2022-08-05T12:42:01.641Z,1015.124
2022-08-05T12:49:05.779Z,1015.107
2022-08-05T12:56:02.232Z,1015.107
2022-08-05T13:01:56.878Z,1015.398
2022-08-05T13:07:01.840Z,1015.398
2022-08-05T13:14:05.398Z,1015.475
2022-08-05T13:21:02.000Z,1015.475
2022-08-05T13:28:02.137Z,1015.798
2022-08-05T13:35:02.040Z,1015.798
2022-08-05T13:42:02.218Z,1015.996
2022-08-05T13:49:02.557Z,1015.996
2022-08-05T13:56:02.170Z,1015.877
2022-08-05T14:00:02.238Z,1015.877
2022-08-05T14:07:26.236Z,1016.145
2022-08-05T14:14:01.592Z,1016.145
2022-08-05T14:22:07.704Z,1015.96
2022-08-05T14:28:01.757Z,1015.96
2022-08-05T14:35:02.480Z,1016.199
2022-08-05T14:42:21.192Z,1016.199
2022-08-05T14:49:06.569Z,1016.087
2022-08-05T14:56:02.095Z,1016.148
2022-08-05T15:00:01.725Z,1016.148
2022-08-05T15:07:01.580Z,1016.148
2022-08-05T15:14:01.392Z,1016.161
2022-08-05T15:21:07.213Z,1016.229
2022-08-05T15:28:01.797Z,1016.229
2022-08-05T15:35:09.755Z,1016.195
2022-08-05T15:42:01.795Z,1016.195
2022-08-05T15:49:10.080Z,1016.164
2022-08-05T15:56:04.874Z,1016.164
2022-08-05T16:00:02.361Z,1016.295
2022-08-05T16:07:02.098Z,1016.295
2022-08-05T16:14:01.921Z,1016.423
2022-08-05T16:21:04.647Z,1016.423
2022-08-05T16:28:05.635Z,1016.412
2022-08-05T16:35:02.187Z,1016.412
2022-08-05T16:42:15.105Z,1016.558
2022-08-05T16:49:02.895Z,1016.558
2022-08-05T16:56:01.770Z,1016.827
2022-08-05T17:00:08.383Z,1016.827
2022-08-05T17:07:03.184Z,1016.911
2022-08-05T17:14:06.259Z,1016.911
2022-08-05T17:21:02.047Z,1017.156
2022-08-05T17:28:02.136Z,1017.156
2022-08-05T17:35:02.286Z,1017.295
2022-08-05T17:42:19.103Z,1017.295
2022-08-05T17:49:02.070Z,1017.165
2022-08-05T17:56:01.565Z,1017.439
2022-08-05T18:00:03.323Z,1017.439
2022-08-05T18:07:01.452Z,1017.439
2022-08-05T18:14:03.547Z,1017.55
2022-08-05T18:21:01.919Z,1017.771
2022-08-05T18:28:05.080Z,1017.771
2022-08-05T18:35:02.360Z,1017.952
2022-08-05T18:42:06.082Z,1017.952
2022-08-05T18:49:01.783Z,1018.288
2022-08-05T18:56:01.844Z,1018.288
2022-08-05T19:00:07.553Z,1018.301
2022-08-05T19:07:02.201Z,1018.301
2022-08-05T19:14:05.207Z,1018.488
2022-08-05T19:21:01.894Z,1018.488
2022-08-05T19:28:02.107Z,1018.707
2022-08-05T19:35:06.566Z,1018.707
2022-08-05T19:42:07.890Z,1018.897
2022-08-05T19:49:03.159Z,1018.897
2022-08-05T19:56:14.308Z,1019.148
2022-08-05T20:00:04.505Z,1019.148
2022-08-05T20:07:01.919Z,1019.223
2022-08-05T20:14:12.427Z,1019.223
2022-08-05T20:21:02.031Z,1019.589
2022-08-05T20:28:01.882Z,1019.589
2022-08-05T20:35:02.293Z,1019.794
2022-08-05T20:42:01.672Z,1019.794
2022-08-05T20:49:02.543Z,1020.047
2022-08-05T20:56:08.350Z,1020.065
2022-08-05T21:00:20.890Z,1020.065
2022-08-05T21:07:01.374Z,1020.065
2022-08-05T21:14:01.563Z,1020.166
2022-08-05T21:21:01.613Z,1020.344
2022-08-05T21:28:01.685Z,1020.344
2022-08-05T21:35:17.502Z,1020.39
2022-08-05T21:42:02.505Z,1020.39
2022-08-05T21:49:01.448Z,1020.606
2022-08-05T21:56:05.909Z,1020.606
2022-08-05T22:00:05.051Z,1020.482
2022-08-05T22:07:01.545Z,1020.482
2022-08-05T22:14:32.408Z,1020.629
2022-08-05T22:21:04.231Z,1020.629
2022-08-05T22:28:08.771Z,1020.853
2022-08-05T22:35:02.282Z,1020.853
2022-08-05T22:42:10.115Z,1020.732
2022-08-05T22:49:01.828Z,1020.732
2022-08-05T22:56:01.946Z,1020.934
2022-08-05T23:00:02.765Z,1020.934
2022-08-05T23:07:02.318Z,1021.16
2022-08-05T23:14:01.790Z,1021.16
2022-08-05T23:21:01.447Z,1021.211
2022-08-05T23:28:02.213Z,1021.211
2022-08-05T23:35:01.625Z,1021.564
2022-08-05T23:42:01.799Z,1021.564
2022-08-05T23:49:03.755Z,1021.579
2022-08-05T23:56:02.060Z,1021.657
